North Kingstown, Rhode Island
Current Conditions -  °F | °C
As of 5:53 PM on Tuesday 25 Nov 2014 (Local Time) from KUUU Reporting Station
Clear Clear  
Wind Chill: 54°   Ceiling: Unl
Heat Index: 54°   Visibility: 10mi
Dew Point: 32°   Wind: 5mph
Humidity: 43%   Direction: NA
Pressure: 30"   Gusts: NA
Location:  41.6°N, 71.42°W
Report Text: KUUU 252253Z AUTO VRB04KT 10SM CLR 12/00 A3000 RMK AO2 SLP157 T01220000
Loading
Personal Weather Stations






























Interactive Weather Map New forecast layout! Learn more

10-Day Weather Forecast

Advertisements
Track Severe Weather on mobile